Terminal Aerodrome Forecast
Issued by NWS San Angelo, TX

Home | Current Version | Previous Version | Text Only | Print | Product List | Glossary On
Versions: 1 2 3 4 5 6 7 8 9 10 11 12 13 14 15 16 17 18 19 20 21 22 23 24 25 26 27
000
FTUS44 KSJT 050250 AAB
TAFABI
TAF AMD
KABI 050250Z 0503/0524 02005KT P6SM OVC020
      TEMPO 0503/0506 OVC018
     FM050600 02005KT P6SM OVC018
     FM051200 10003KT 6SM BR OVC007
     FM051500 18004KT 4SM -DZ BR OVC007
     FM051800 22007KT P6SM OVC015
     FM052100 22009KT P6SM BKN250=

USA.gov is the U.S. government's official web portal to all federal, state and local government web resources and services.